sensor_id;sensor_type;location;lat;lon;timestamp;P1;durP1;ratioP1;P2;durP2;ratioP2
51866;SDS011;52862;52.504;13.480;2023-10-19T00:02:45;34.77;;;16.23;;
51866;SDS011;52862;52.504;13.480;2023-10-19T00:05:13;29.80;;;16.23;;
51866;SDS011;52862;52.504;13.480;2023-10-19T00:07:41;38.20;;;17.00;;
51866;SDS011;52862;52.504;13.480;2023-10-19T00:10:09;35.03;;;16.57;;
51866;SDS011;52862;52.504;13.480;2023-10-19T00:12:40;33.67;;;16.17;;
51866;SDS011;52862;52.504;13.480;2023-10-19T00:15:10;35.73;;;16.40;;
51866;SDS011;52862;52.504;13.480;2023-10-19T00:17:38;33.83;;;16.13;;
51866;SDS011;52862;52.504;13.480;2023-10-19T00:20:05;32.27;;;16.23;;
51866;SDS011;52862;52.504;13.480;2023-10-19T00:22:47;28.50;;;14.60;;
51866;SDS011;52862;52.504;13.480;2023-10-19T00:25:14;40.07;;;16.60;;
51866;SDS011;52862;52.504;13.480;2023-10-19T00:27:41;33.97;;;15.97;;
51866;SDS011;52862;52.504;13.480;2023-10-19T00:30:08;34.37;;;15.13;;
51866;SDS011;52862;52.504;13.480;2023-10-19T00:32:37;34.63;;;15.80;;
51866;SDS011;52862;52.504;13.480;2023-10-19T00:35:04;39.37;;;15.17;;
51866;SDS011;52862;52.504;13.480;2023-10-19T00:37:47;30.97;;;16.23;;
51866;SDS011;52862;52.504;13.480;2023-10-19T00:40:14;39.43;;;16.77;;
51866;SDS011;52862;52.504;13.480;2023-10-19T00:43:02;30.10;;;15.23;;
51866;SDS011;52862;52.504;13.480;2023-10-19T00:45:32;34.67;;;16.03;;
51866;SDS011;52862;52.504;13.480;2023-10-19T00:48:06;30.80;;;15.80;;
51866;SDS011;52862;52.504;13.480;2023-10-19T00:50:34;31.30;;;16.17;;
51866;SDS011;52862;52.504;13.480;2023-10-19T00:53:02;33.50;;;16.73;;
51866;SDS011;52862;52.504;13.480;2023-10-19T00:55:33;36.97;;;16.70;;
51866;SDS011;52862;52.504;13.480;2023-10-19T00:58:00;46.27;;;17.40;;
51866;SDS011;52862;52.504;13.480;2023-10-19T01:00:36;33.73;;;16.07;;
51866;SDS011;52862;52.504;13.480;2023-10-19T01:03:10;45.80;;;17.67;;
51866;SDS011;52862;52.504;13.480;2023-10-19T01:05:39;38.77;;;17.03;;
51866;SDS011;52862;52.504;13.480;2023-10-19T01:08:13;32.13;;;17.33;;
51866;SDS011;52862;52.504;13.480;2023-10-19T01:10:49;33.77;;;16.53;;
51866;SDS011;52862;52.504;13.480;2023-10-19T01:13:18;42.37;;;17.43;;
51866;SDS011;52862;52.504;13.480;2023-10-19T01:15:53;38.37;;;17.73;;
51866;SDS011;52862;52.504;13.480;2023-10-19T01:18:20;34.63;;;16.77;;
51866;SDS011;52862;52.504;13.480;2023-10-19T01:20:47;46.53;;;17.57;;
51866;SDS011;52862;52.504;13.480;2023-10-19T01:23:17;39.53;;;18.27;;
51866;SDS011;52862;52.504;13.480;2023-10-19T01:25:52;40.77;;;18.83;;
51866;SDS011;52862;52.504;13.480;2023-10-19T01:28:27;47.67;;;17.83;;
51866;SDS011;52862;52.504;13.480;2023-10-19T01:31:08;34.73;;;17.70;;
51866;SDS011;52862;52.504;13.480;2023-10-19T01:33:40;36.60;;;17.47;;
51866;SDS011;52862;52.504;13.480;2023-10-19T01:36:09;44.57;;;18.77;;
51866;SDS011;52862;52.504;13.480;2023-10-19T01:38:37;38.93;;;17.43;;
51866;SDS011;52862;52.504;13.480;2023-10-19T01:41:04;46.20;;;16.87;;
51866;SDS011;52862;52.504;13.480;2023-10-19T01:43:34;33.63;;;17.90;;
51866;SDS011;52862;52.504;13.480;2023-10-19T01:46:02;38.53;;;18.10;;
51866;SDS011;52862;52.504;13.480;2023-10-19T01:48:30;43.30;;;17.47;;
51866;SDS011;52862;52.504;13.480;2023-10-19T01:50:59;50.77;;;19.50;;
51866;SDS011;52862;52.504;13.480;2023-10-19T01:53:30;42.17;;;17.70;;
51866;SDS011;52862;52.504;13.480;2023-10-19T01:55:57;38.90;;;18.77;;
51866;SDS011;52862;52.504;13.480;2023-10-19T01:58:24;51.30;;;17.90;;
51866;SDS011;52862;52.504;13.480;2023-10-19T02:00:51;46.43;;;18.47;;
51866;SDS011;52862;52.504;13.480;2023-10-19T02:03:21;37.97;;;18.83;;
51866;SDS011;52862;52.504;13.480;2023-10-19T02:05:56;46.23;;;17.90;;
51866;SDS011;52862;52.504;13.480;2023-10-19T02:08:24;44.03;;;18.70;;
51866;SDS011;52862;52.504;13.480;2023-10-19T02:10:52;38.47;;;18.60;;
51866;SDS011;52862;52.504;13.480;2023-10-19T02:13:20;42.23;;;17.63;;
51866;SDS011;52862;52.504;13.480;2023-10-19T02:15:46;40.37;;;17.20;;
51866;SDS011;52862;52.504;13.480;2023-10-19T02:18:14;39.10;;;18.40;;
51866;SDS011;52862;52.504;13.480;2023-10-19T02:20:43;43.63;;;17.57;;
51866;SDS011;52862;52.504;13.480;2023-10-19T02:23:13;47.30;;;19.43;;
51866;SDS011;52862;52.504;13.480;2023-10-19T02:25:40;55.17;;;20.33;;
51866;SDS011;52862;52.504;13.480;2023-10-19T02:28:08;44.50;;;18.53;;
51866;SDS011;52862;52.504;13.480;2023-10-19T02:30:35;40.87;;;20.37;;
51866;SDS011;52862;52.504;13.480;2023-10-19T02:33:03;43.03;;;18.33;;
51866;SDS011;52862;52.504;13.480;2023-10-19T02:35:31;48.73;;;18.90;;
51866;SDS011;52862;52.504;13.480;2023-10-19T02:38:00;39.10;;;18.60;;
51866;SDS011;52862;52.504;13.480;2023-10-19T02:40:27;45.13;;;19.17;;
51866;SDS011;52862;52.504;13.480;2023-10-19T02:42:59;46.33;;;19.50;;
51866;SDS011;52862;52.504;13.480;2023-10-19T02:45:28;38.67;;;18.37;;
51866;SDS011;52862;52.504;13.480;2023-10-19T02:47:58;38.57;;;18.20;;
51866;SDS011;52862;52.504;13.480;2023-10-19T02:50:24;35.10;;;19.00;;
51866;SDS011;52862;52.504;13.480;2023-10-19T02:52:52;38.10;;;17.73;;
51866;SDS011;52862;52.504;13.480;2023-10-19T02:55:19;37.87;;;18.50;;
51866;SDS011;52862;52.504;13.480;2023-10-19T02:57:48;43.00;;;19.03;;
51866;SDS011;52862;52.504;13.480;2023-10-19T03:00:16;40.10;;;18.93;;
51866;SDS011;52862;52.504;13.480;2023-10-19T03:02:46;39.70;;;18.10;;
51866;SDS011;52862;52.504;13.480;2023-10-19T03:05:13;41.07;;;18.73;;
51866;SDS011;52862;52.504;13.480;2023-10-19T03:07:41;40.87;;;18.73;;
51866;SDS011;52862;52.504;13.480;2023-10-19T03:10:09;38.77;;;19.67;;
51866;SDS011;52862;52.504;13.480;2023-10-19T03:12:49;43.47;;;19.23;;
51866;SDS011;52862;52.504;13.480;2023-10-19T03:15:25;51.67;;;19.63;;
51866;SDS011;52862;52.504;13.480;2023-10-19T03:17:58;41.27;;;18.57;;
51866;SDS011;52862;52.504;13.480;2023-10-19T03:20:27;38.63;;;18.57;;
51866;SDS011;52862;52.504;13.480;2023-10-19T03:22:54;44.07;;;19.13;;
51866;SDS011;52862;52.504;13.480;2023-10-19T03:25:26;40.23;;;19.00;;
51866;SDS011;52862;52.504;13.480;2023-10-19T03:28:11;44.47;;;18.97;;
51866;SDS011;52862;52.504;13.480;2023-10-19T03:30:38;36.93;;;18.37;;
51866;SDS011;52862;52.504;13.480;2023-10-19T03:33:05;44.17;;;19.83;;
51866;SDS011;52862;52.504;13.480;2023-10-19T03:35:36;39.70;;;18.10;;
51866;SDS011;52862;52.504;13.480;2023-10-19T03:38:04;46.10;;;18.37;;
51866;SDS011;52862;52.504;13.480;2023-10-19T03:40:40;47.00;;;19.90;;
51866;SDS011;52862;52.504;13.480;2023-10-19T03:43:07;42.13;;;19.03;;
51866;SDS011;52862;52.504;13.480;2023-10-19T03:45:45;42.90;;;19.77;;
51866;SDS011;52862;52.504;13.480;2023-10-19T03:48:17;40.80;;;18.97;;
51866;SDS011;52862;52.504;13.480;2023-10-19T03:50:53;46.03;;;20.87;;
51866;SDS011;52862;52.504;13.480;2023-10-19T03:53:21;43.30;;;21.03;;
51866;SDS011;52862;52.504;13.480;2023-10-19T03:55:49;38.63;;;19.17;;
51866;SDS011;52862;52.504;13.480;2023-10-19T03:58:16;42.23;;;19.90;;
51866;SDS011;52862;52.504;13.480;2023-10-19T04:00:46;47.90;;;20.93;;
51866;SDS011;52862;52.504;13.480;2023-10-19T04:03:14;46.50;;;21.53;;
51866;SDS011;52862;52.504;13.480;2023-10-19T04:05:41;47.17;;;20.83;;
51866;SDS011;52862;52.504;13.480;2023-10-19T04:08:13;43.97;;;20.80;;
51866;SDS011;52862;52.504;13.480;2023-10-19T04:10:45;50.47;;;20.00;;
51866;SDS011;52862;52.504;13.480;2023-10-19T04:13:32;43.63;;;20.30;;
51866;SDS011;52862;52.504;13.480;2023-10-19T04:15:59;45.07;;;20.60;;
51866;SDS011;52862;52.504;13.480;2023-10-19T04:18:26;50.60;;;20.67;;
51866;SDS011;52862;52.504;13.480;2023-10-19T04:20:53;46.03;;;20.77;;
51866;SDS011;52862;52.504;13.480;2023-10-19T04:23:21;63.77;;;23.17;;
51866;SDS011;52862;52.504;13.480;2023-10-19T04:25:52;49.90;;;20.40;;
51866;SDS011;52862;52.504;13.480;2023-10-19T04:28:22;39.03;;;21.03;;
51866;SDS011;52862;52.504;13.480;2023-10-19T04:30:56;47.50;;;21.27;;
51866;SDS011;52862;52.504;13.480;2023-10-19T04:33:28;42.03;;;20.43;;
51866;SDS011;52862;52.504;13.480;2023-10-19T04:35:56;47.50;;;21.73;;
51866;SDS011;52862;52.504;13.480;2023-10-19T04:38:26;46.43;;;22.17;;
51866;SDS011;52862;52.504;13.480;2023-10-19T04:41:03;42.43;;;21.20;;
51866;SDS011;52862;52.504;13.480;2023-10-19T04:43:33;51.67;;;21.73;;
51866;SDS011;52862;52.504;13.480;2023-10-19T04:46:00;47.43;;;21.43;;
51866;SDS011;52862;52.504;13.480;2023-10-19T04:48:33;57.50;;;22.17;;
51866;SDS011;52862;52.504;13.480;2023-10-19T04:51:01;49.57;;;21.63;;
51866;SDS011;52862;52.504;13.480;2023-10-19T04:53:31;46.43;;;21.70;;
51866;SDS011;52862;52.504;13.480;2023-10-19T04:55:59;52.30;;;22.53;;
51866;SDS011;52862;52.504;13.480;2023-10-19T04:58:26;44.70;;;21.70;;
51866;SDS011;52862;52.504;13.480;2023-10-19T05:00:54;51.33;;;21.60;;
51866;SDS011;52862;52.504;13.480;2023-10-19T05:03:21;51.13;;;22.87;;
51866;SDS011;52862;52.504;13.480;2023-10-19T05:05:49;45.47;;;22.23;;
51866;SDS011;52862;52.504;13.480;2023-10-19T05:08:17;50.57;;;23.03;;
51866;SDS011;52862;52.504;13.480;2023-10-19T05:10:44;48.97;;;23.53;;
51866;SDS011;52862;52.504;13.480;2023-10-19T05:13:12;54.87;;;24.20;;
51866;SDS011;52862;52.504;13.480;2023-10-19T05:15:39;57.30;;;24.53;;
51866;SDS011;52862;52.504;13.480;2023-10-19T05:18:08;66.93;;;23.37;;
51866;SDS011;52862;52.504;13.480;2023-10-19T05:20:36;48.37;;;21.80;;
51866;SDS011;52862;52.504;13.480;2023-10-19T05:23:06;59.03;;;22.23;;
51866;SDS011;52862;52.504;13.480;2023-10-19T05:25:33;55.83;;;22.33;;
51866;SDS011;52862;52.504;13.480;2023-10-19T05:28:03;53.13;;;22.60;;
51866;SDS011;52862;52.504;13.480;2023-10-19T05:30:31;50.83;;;24.27;;
51866;SDS011;52862;52.504;13.480;2023-10-19T05:32:58;47.10;;;22.70;;
51866;SDS011;52862;52.504;13.480;2023-10-19T05:35:30;53.43;;;22.13;;
51866;SDS011;52862;52.504;13.480;2023-10-19T05:38:00;55.57;;;24.20;;
51866;SDS011;52862;52.504;13.480;2023-10-19T05:40:28;54.90;;;23.90;;
51866;SDS011;52862;52.504;13.480;2023-10-19T05:42:56;49.23;;;23.73;;
51866;SDS011;52862;52.504;13.480;2023-10-19T05:45:24;53.53;;;23.07;;
51866;SDS011;52862;52.504;13.480;2023-10-19T05:47:52;47.97;;;23.03;;
51866;SDS011;52862;52.504;13.480;2023-10-19T05:50:19;50.33;;;23.73;;
51866;SDS011;52862;52.504;13.480;2023-10-19T05:52:46;51.10;;;24.47;;
51866;SDS011;52862;52.504;13.480;2023-10-19T05:55:14;53.17;;;23.30;;
51866;SDS011;52862;52.504;13.480;2023-10-19T05:57:41;57.47;;;25.40;;
51866;SDS011;52862;52.504;13.480;2023-10-19T06:00:09;47.97;;;22.90;;
51866;SDS011;52862;52.504;13.480;2023-10-19T06:02:42;54.17;;;24.20;;
51866;SDS011;52862;52.504;13.480;2023-10-19T06:05:10;55.87;;;24.03;;
51866;SDS011;52862;52.504;13.480;2023-10-19T06:07:38;64.73;;;25.30;;
51866;SDS011;52862;52.504;13.480;2023-10-19T06:10:05;54.70;;;23.60;;
51866;SDS011;52862;52.504;13.480;2023-10-19T06:12:33;56.57;;;24.67;;
51866;SDS011;52862;52.504;13.480;2023-10-19T06:15:00;49.13;;;24.77;;
51866;SDS011;52862;52.504;13.480;2023-10-19T06:17:29;60.17;;;24.73;;
51866;SDS011;52862;52.504;13.480;2023-10-19T06:19:57;59.40;;;25.60;;
51866;SDS011;52862;52.504;13.480;2023-10-19T06:22:23;64.67;;;25.17;;
51866;SDS011;52862;52.504;13.480;2023-10-19T06:24:50;60.73;;;26.20;;
51866;SDS011;52862;52.504;13.480;2023-10-19T06:27:17;55.53;;;25.47;;
51866;SDS011;52862;52.504;13.480;2023-10-19T06:29:45;54.70;;;25.53;;
51866;SDS011;52862;52.504;13.480;2023-10-19T06:32:11;58.23;;;25.67;;
51866;SDS011;52862;52.504;13.480;2023-10-19T06:34:39;62.13;;;27.10;;
51866;SDS011;52862;52.504;13.480;2023-10-19T06:37:06;53.03;;;26.73;;
51866;SDS011;52862;52.504;13.480;2023-10-19T06:39:36;55.10;;;24.23;;
51866;SDS011;52862;52.504;13.480;2023-10-19T06:42:06;54.47;;;26.20;;
51866;SDS011;52862;52.504;13.480;2023-10-19T06:44:40;58.00;;;26.73;;
51866;SDS011;52862;52.504;13.480;2023-10-19T06:47:08;59.23;;;26.40;;
51866;SDS011;52862;52.504;13.480;2023-10-19T06:49:36;57.00;;;26.63;;
51866;SDS011;52862;52.504;13.480;2023-10-19T06:52:03;63.03;;;26.97;;
51866;SDS011;52862;52.504;13.480;2023-10-19T06:54:31;74.13;;;27.83;;
51866;SDS011;52862;52.504;13.480;2023-10-19T06:56:59;56.00;;;25.63;;
51866;SDS011;52862;52.504;13.480;2023-10-19T06:59:28;61.50;;;28.00;;
51866;SDS011;52862;52.504;13.480;2023-10-19T07:01:57;55.67;;;25.80;;
51866;SDS011;52862;52.504;13.480;2023-10-19T07:04:27;66.93;;;25.37;;
51866;SDS011;52862;52.504;13.480;2023-10-19T07:06:54;63.70;;;25.50;;
51866;SDS011;52862;52.504;13.480;2023-10-19T07:09:22;53.10;;;24.10;;
51866;SDS011;52862;52.504;13.480;2023-10-19T07:11:50;58.43;;;26.60;;
51866;SDS011;52862;52.504;13.480;2023-10-19T07:14:20;59.73;;;25.07;;
51866;SDS011;52862;52.504;13.480;2023-10-19T07:16:48;58.87;;;25.23;;
51866;SDS011;52862;52.504;13.480;2023-10-19T07:19:16;57.77;;;25.33;;
51866;SDS011;52862;52.504;13.480;2023-10-19T07:21:44;70.17;;;25.63;;
51866;SDS011;52862;52.504;13.480;2023-10-19T07:24:14;59.00;;;26.00;;
51866;SDS011;52862;52.504;13.480;2023-10-19T07:26:44;59.30;;;26.20;;
51866;SDS011;52862;52.504;13.480;2023-10-19T07:29:20;51.30;;;24.43;;
51866;SDS011;52862;52.504;13.480;2023-10-19T07:31:47;48.17;;;23.47;;
51866;SDS011;52862;52.504;13.480;2023-10-19T07:34:14;51.80;;;24.23;;
51866;SDS011;52862;52.504;13.480;2023-10-19T07:36:41;56.77;;;24.20;;
51866;SDS011;52862;52.504;13.480;2023-10-19T07:39:08;58.73;;;24.10;;
51866;SDS011;52862;52.504;13.480;2023-10-19T07:41:44;46.13;;;22.90;;
51866;SDS011;52862;52.504;13.480;2023-10-19T07:44:11;52.00;;;24.37;;
51866;SDS011;52862;52.504;13.480;2023-10-19T07:46:39;50.10;;;24.00;;
51866;SDS011;52862;52.504;13.480;2023-10-19T07:49:06;48.07;;;23.23;;
51866;SDS011;52862;52.504;13.480;2023-10-19T07:51:33;47.47;;;23.67;;
51866;SDS011;52862;52.504;13.480;2023-10-19T07:54:00;57.77;;;24.10;;
51866;SDS011;52862;52.504;13.480;2023-10-19T07:56:27;59.90;;;23.43;;
51866;SDS011;52862;52.504;13.480;2023-10-19T07:58:55;50.10;;;23.50;;
51866;SDS011;52862;52.504;13.480;2023-10-19T08:01:22;53.97;;;23.20;;
51866;SDS011;52862;52.504;13.480;2023-10-19T08:03:50;55.13;;;22.67;;
51866;SDS011;52862;52.504;13.480;2023-10-19T08:06:17;46.87;;;22.70;;
51866;SDS011;52862;52.504;13.480;2023-10-19T08:08:44;58.63;;;23.40;;
51866;SDS011;52862;52.504;13.480;2023-10-19T08:11:11;48.93;;;23.83;;
51866;SDS011;52862;52.504;13.480;2023-10-19T08:13:39;62.80;;;23.67;;
51866;SDS011;52862;52.504;13.480;2023-10-19T08:16:06;46.33;;;23.07;;
51866;SDS011;52862;52.504;13.480;2023-10-19T08:18:33;52.07;;;21.57;;
51866;SDS011;52862;52.504;13.480;2023-10-19T08:21:01;49.50;;;21.80;;
51866;SDS011;52862;52.504;13.480;2023-10-19T08:23:28;45.30;;;21.43;;
51866;SDS011;52862;52.504;13.480;2023-10-19T08:25:57;47.13;;;20.87;;
51866;SDS011;52862;52.504;13.480;2023-10-19T08:28:25;49.40;;;20.63;;
51866;SDS011;52862;52.504;13.480;2023-10-19T08:30:53;51.57;;;22.43;;
51866;SDS011;52862;52.504;13.480;2023-10-19T08:33:24;40.00;;;21.07;;
51866;SDS011;52862;52.504;13.480;2023-10-19T08:35:52;45.47;;;23.00;;
51866;SDS011;52862;52.504;13.480;2023-10-19T08:38:20;45.63;;;20.27;;
51866;SDS011;52862;52.504;13.480;2023-10-19T08:40:47;53.43;;;23.57;;
51866;SDS011;52862;52.504;13.480;2023-10-19T08:43:16;41.57;;;20.00;;
51866;SDS011;52862;52.504;13.480;2023-10-19T08:45:44;48.80;;;21.87;;
51866;SDS011;52862;52.504;13.480;2023-10-19T08:48:12;42.60;;;21.03;;
51866;SDS011;52862;52.504;13.480;2023-10-19T08:50:39;46.77;;;22.40;;
51866;SDS011;52862;52.504;13.480;2023-10-19T08:53:07;54.17;;;22.80;;
51866;SDS011;52862;52.504;13.480;2023-10-19T08:55:40;49.97;;;20.77;;
51866;SDS011;52862;52.504;13.480;2023-10-19T08:58:15;48.10;;;21.03;;
51866;SDS011;52862;52.504;13.480;2023-10-19T09:00:45;52.37;;;21.07;;
51866;SDS011;52862;52.504;13.480;2023-10-19T09:03:17;55.57;;;20.83;;
51866;SDS011;52862;52.504;13.480;2023-10-19T09:05:44;50.50;;;20.80;;
51866;SDS011;52862;52.504;13.480;2023-10-19T09:08:13;52.60;;;22.23;;
51866;SDS011;52862;52.504;13.480;2023-10-19T09:10:44;44.57;;;19.93;;
51866;SDS011;52862;52.504;13.480;2023-10-19T09:13:12;44.40;;;20.77;;
51866;SDS011;52862;52.504;13.480;2023-10-19T09:15:41;48.70;;;19.83;;
51866;SDS011;52862;52.504;13.480;2023-10-19T09:18:12;47.03;;;20.97;;
51866;SDS011;52862;52.504;13.480;2023-10-19T09:20:40;55.23;;;21.07;;
51866;SDS011;52862;52.504;13.480;2023-10-19T09:23:08;41.43;;;19.73;;
51866;SDS011;52862;52.504;13.480;2023-10-19T09:25:36;48.23;;;19.93;;
51866;SDS011;52862;52.504;13.480;2023-10-19T09:28:06;47.07;;;20.97;;
51866;SDS011;52862;52.504;13.480;2023-10-19T09:30:36;52.07;;;21.37;;
51866;SDS011;52862;52.504;13.480;2023-10-19T09:33:06;50.27;;;21.17;;
51866;SDS011;52862;52.504;13.480;2023-10-19T09:35:35;43.00;;;19.20;;
51866;SDS011;52862;52.504;13.480;2023-10-19T09:38:04;41.07;;;19.87;;
51866;SDS011;52862;52.504;13.480;2023-10-19T09:40:32;38.87;;;18.93;;
51866;SDS011;52862;52.504;13.480;2023-10-19T09:43:00;42.07;;;20.20;;
51866;SDS011;52862;52.504;13.480;2023-10-19T09:45:33;42.00;;;19.93;;
51866;SDS011;52862;52.504;13.480;2023-10-19T09:48:04;43.53;;;20.10;;
51866;SDS011;52862;52.504;13.480;2023-10-19T09:50:33;43.70;;;19.50;;
51866;SDS011;52862;52.504;13.480;2023-10-19T09:53:01;40.13;;;20.03;;
51866;SDS011;52862;52.504;13.480;2023-10-19T09:55:31;47.17;;;19.10;;
51866;SDS011;52862;52.504;13.480;2023-10-19T09:58:05;49.70;;;19.87;;
51866;SDS011;52862;52.504;13.480;2023-10-19T10:00:43;42.93;;;20.93;;
51866;SDS011;52862;52.504;13.480;2023-10-19T10:06:10;43.77;;;20.60;;
51866;SDS011;52862;52.504;13.480;2023-10-19T10:08:38;40.83;;;18.63;;
51866;SDS011;52862;52.504;13.480;2023-10-19T10:11:13;45.93;;;20.27;;
51866;SDS011;52862;52.504;13.480;2023-10-19T10:13:44;44.23;;;19.57;;
51866;SDS011;52862;52.504;13.480;2023-10-19T10:16:15;51.10;;;20.13;;
51866;SDS011;52862;52.504;13.480;2023-10-19T10:18:43;42.97;;;20.93;;
51866;SDS011;52862;52.504;13.480;2023-10-19T10:21:10;41.13;;;20.20;;
51866;SDS011;52862;52.504;13.480;2023-10-19T10:23:42;39.47;;;19.43;;
51866;SDS011;52862;52.504;13.480;2023-10-19T10:26:11;56.03;;;20.43;;
51866;SDS011;52862;52.504;13.480;2023-10-19T10:28:40;43.40;;;20.47;;
51866;SDS011;52862;52.504;13.480;2023-10-19T10:31:09;47.67;;;20.57;;
51866;SDS011;52862;52.504;13.480;2023-10-19T10:33:43;45.07;;;20.47;;
51866;SDS011;52862;52.504;13.480;2023-10-19T10:36:12;51.87;;;21.30;;
51866;SDS011;52862;52.504;13.480;2023-10-19T10:38:40;45.90;;;21.53;;
51866;SDS011;52862;52.504;13.480;2023-10-19T10:41:07;47.60;;;23.23;;
51866;SDS011;52862;52.504;13.480;2023-10-19T10:43:52;48.47;;;20.40;;
51866;SDS011;52862;52.504;13.480;2023-10-19T10:46:21;40.00;;;20.97;;
51866;SDS011;52862;52.504;13.480;2023-10-19T10:48:50;41.43;;;21.00;;
51866;SDS011;52862;52.504;13.480;2023-10-19T10:51:18;50.83;;;22.37;;
51866;SDS011;52862;52.504;13.480;2023-10-19T10:53:46;48.63;;;22.63;;
51866;SDS011;52862;52.504;13.480;2023-10-19T10:56:14;44.93;;;20.83;;
51866;SDS011;52862;52.504;13.480;2023-10-19T10:58:43;49.13;;;23.30;;
51866;SDS011;52862;52.504;13.480;2023-10-19T11:01:10;43.17;;;21.73;;
51866;SDS011;52862;52.504;13.480;2023-10-19T11:03:38;59.80;;;22.57;;
51866;SDS011;52862;52.504;13.480;2023-10-19T11:06:07;50.50;;;23.03;;
51866;SDS011;52862;52.504;13.480;2023-10-19T11:08:34;45.37;;;22.30;;
51866;SDS011;52862;52.504;13.480;2023-10-19T11:11:02;50.30;;;22.67;;
51866;SDS011;52862;52.504;13.480;2023-10-19T11:13:30;49.53;;;23.07;;
51866;SDS011;52862;52.504;13.480;2023-10-19T11:15:59;54.43;;;22.77;;
51866;SDS011;52862;52.504;13.480;2023-10-19T11:18:30;49.63;;;23.00;;
51866;SDS011;52862;52.504;13.480;2023-10-19T11:21:00;58.20;;;24.87;;
51866;SDS011;52862;52.504;13.480;2023-10-19T11:23:40;42.17;;;22.60;;
51866;SDS011;52862;52.504;13.480;2023-10-19T11:26:09;54.70;;;24.17;;
51866;SDS011;52862;52.504;13.480;2023-10-19T11:28:37;57.97;;;24.50;;
51866;SDS011;52862;52.504;13.480;2023-10-19T11:31:16;48.53;;;23.33;;
51866;SDS011;52862;52.504;13.480;2023-10-19T11:33:44;52.73;;;23.37;;
51866;SDS011;52862;52.504;13.480;2023-10-19T11:36:12;52.00;;;24.43;;
51866;SDS011;52862;52.504;13.480;2023-10-19T11:38:40;50.30;;;24.23;;
51866;SDS011;52862;52.504;13.480;2023-10-19T11:41:08;54.23;;;24.37;;
51866;SDS011;52862;52.504;13.480;2023-10-19T11:43:35;50.30;;;24.50;;
51866;SDS011;52862;52.504;13.480;2023-10-19T11:46:02;49.87;;;25.33;;
51866;SDS011;52862;52.504;13.480;2023-10-19T11:48:30;57.10;;;25.87;;
51866;SDS011;52862;52.504;13.480;2023-10-19T11:50:57;51.80;;;25.43;;
51866;SDS011;52862;52.504;13.480;2023-10-19T11:53:24;58.53;;;27.10;;
51866;SDS011;52862;52.504;13.480;2023-10-19T11:55:52;58.27;;;27.00;;
51866;SDS011;52862;52.504;13.480;2023-10-19T11:58:19;56.17;;;26.37;;
51866;SDS011;52862;52.504;13.480;2023-10-19T12:00:46;53.20;;;26.43;;
51866;SDS011;52862;52.504;13.480;2023-10-19T12:03:12;52.23;;;27.57;;
51866;SDS011;52862;52.504;13.480;2023-10-19T12:05:40;59.17;;;26.73;;
51866;SDS011;52862;52.504;13.480;2023-10-19T12:08:08;52.83;;;25.30;;
51866;SDS011;52862;52.504;13.480;2023-10-19T12:10:34;56.00;;;27.20;;
51866;SDS011;52862;52.504;13.480;2023-10-19T12:13:03;62.50;;;29.17;;
51866;SDS011;52862;52.504;13.480;2023-10-19T12:15:31;59.27;;;26.23;;
51866;SDS011;52862;52.504;13.480;2023-10-19T12:17:58;56.53;;;27.20;;
51866;SDS011;52862;52.504;13.480;2023-10-19T12:20:25;54.40;;;27.00;;
51866;SDS011;52862;52.504;13.480;2023-10-19T12:22:52;56.57;;;27.77;;
51866;SDS011;52862;52.504;13.480;2023-10-19T12:25:20;57.67;;;28.77;;
51866;SDS011;52862;52.504;13.480;2023-10-19T12:28:02;60.50;;;28.07;;
51866;SDS011;52862;52.504;13.480;2023-10-19T12:30:30;54.83;;;27.87;;
51866;SDS011;52862;52.504;13.480;2023-10-19T12:32:59;62.73;;;27.13;;
51866;SDS011;52862;52.504;13.480;2023-10-19T12:35:27;55.30;;;27.40;;
51866;SDS011;52862;52.504;13.480;2023-10-19T12:38:10;66.40;;;28.40;;
51866;SDS011;52862;52.504;13.480;2023-10-19T12:40:44;53.60;;;27.87;;
51866;SDS011;52862;52.504;13.480;2023-10-19T12:43:13;54.40;;;27.27;;
51866;SDS011;52862;52.504;13.480;2023-10-19T12:45:41;60.50;;;28.33;;
51866;SDS011;52862;52.504;13.480;2023-10-19T12:48:09;54.80;;;29.30;;
51866;SDS011;52862;52.504;13.480;2023-10-19T12:50:37;59.30;;;28.07;;
51866;SDS011;52862;52.504;13.480;2023-10-19T12:53:04;57.23;;;28.33;;
51866;SDS011;52862;52.504;13.480;2023-10-19T12:55:32;59.10;;;29.67;;
51866;SDS011;52862;52.504;13.480;2023-10-19T12:58:00;71.10;;;28.30;;
51866;SDS011;52862;52.504;13.480;2023-10-19T13:00:33;71.07;;;28.00;;
51866;SDS011;52862;52.504;13.480;2023-10-19T13:03:09;58.00;;;28.63;;
51866;SDS011;52862;52.504;13.480;2023-10-19T13:05:39;57.03;;;29.40;;
51866;SDS011;52862;52.504;13.480;2023-10-19T13:08:07;57.60;;;28.73;;
51866;SDS011;52862;52.504;13.480;2023-10-19T13:10:34;61.30;;;30.33;;
51866;SDS011;52862;52.504;13.480;2023-10-19T13:13:04;53.10;;;28.30;;
51866;SDS011;52862;52.504;13.480;2023-10-19T13:15:31;58.40;;;29.20;;
51866;SDS011;52862;52.504;13.480;2023-10-19T13:18:01;59.60;;;28.80;;
51866;SDS011;52862;52.504;13.480;2023-10-19T13:20:28;59.00;;;29.10;;
51866;SDS011;52862;52.504;13.480;2023-10-19T13:23:00;57.63;;;28.17;;
51866;SDS011;52862;52.504;13.480;2023-10-19T13:25:29;63.90;;;28.73;;
51866;SDS011;52862;52.504;13.480;2023-10-19T13:28:06;61.70;;;29.10;;
51866;SDS011;52862;52.504;13.480;2023-10-19T13:30:37;62.23;;;30.17;;
51866;SDS011;52862;52.504;13.480;2023-10-19T13:33:05;70.97;;;31.43;;
51866;SDS011;52862;52.504;13.480;2023-10-19T13:35:32;65.53;;;31.83;;
51866;SDS011;52862;52.504;13.480;2023-10-19T13:37:59;59.87;;;31.00;;
51866;SDS011;52862;52.504;13.480;2023-10-19T13:40:26;59.87;;;30.37;;
51866;SDS011;52862;52.504;13.480;2023-10-19T13:42:55;74.57;;;31.47;;
51866;SDS011;52862;52.504;13.480;2023-10-19T13:45:22;63.70;;;31.57;;
51866;SDS011;52862;52.504;13.480;2023-10-19T13:47:49;66.60;;;31.17;;
51866;SDS011;52862;52.504;13.480;2023-10-19T13:50:21;68.37;;;30.53;;
51866;SDS011;52862;52.504;13.480;2023-10-19T13:52:49;67.33;;;30.97;;
51866;SDS011;52862;52.504;13.480;2023-10-19T13:55:17;61.87;;;32.07;;
51866;SDS011;52862;52.504;13.480;2023-10-19T13:57:46;70.37;;;31.30;;
51866;SDS011;52862;52.504;13.480;2023-10-19T14:00:14;68.57;;;31.57;;
51866;SDS011;52862;52.504;13.480;2023-10-19T14:02:46;70.20;;;32.00;;
51866;SDS011;52862;52.504;13.480;2023-10-19T14:05:13;55.77;;;30.43;;
51866;SDS011;52862;52.504;13.480;2023-10-19T14:07:41;67.87;;;30.90;;
51866;SDS011;52862;52.504;13.480;2023-10-19T14:10:09;66.47;;;30.73;;
51866;SDS011;52862;52.504;13.480;2023-10-19T14:12:38;73.07;;;31.50;;
51866;SDS011;52862;52.504;13.480;2023-10-19T14:15:09;69.00;;;31.13;;
51866;SDS011;52862;52.504;13.480;2023-10-19T14:17:38;56.13;;;29.40;;
51866;SDS011;52862;52.504;13.480;2023-10-19T14:20:05;63.60;;;30.80;;
51866;SDS011;52862;52.504;13.480;2023-10-19T14:22:40;81.83;;;31.50;;
51866;SDS011;52862;52.504;13.480;2023-10-19T14:25:08;64.90;;;30.17;;